createdAt,value
2018-12-11T00:02:17.632Z,1.60
2018-12-11T00:04:47.285Z,1.73
2018-12-11T00:07:18.252Z,1.63
2018-12-11T00:09:47.830Z,1.60
2018-12-11T00:12:17.379Z,1.50
2018-12-11T00:14:46.966Z,1.27
2018-12-11T00:17:17.862Z,1.17
2018-12-11T00:19:47.438Z,1.57
2018-12-11T00:22:17.000Z,1.50
2018-12-11T00:24:49.013Z,1.27
2018-12-11T00:27:19.841Z,1.33
2018-12-11T00:29:49.412Z,1.50
2018-12-11T00:32:18.976Z,1.50
2018-12-11T00:34:48.587Z,0.93
2018-12-11T00:37:18.174Z,1.27
2018-12-11T00:39:47.713Z,1.10
2018-12-11T00:42:17.312Z,1.07
2018-12-11T00:44:48.158Z,1.17
2018-12-11T00:47:17.718Z,1.23
2018-12-11T00:49:47.338Z,1.23
2018-12-11T00:52:16.861Z,0.93
2018-12-11T00:54:46.423Z,0.90
2018-12-11T00:57:16.017Z,0.90
2018-12-11T00:59:45.579Z,1.03
2018-12-11T01:02:15.142Z,1.20
2018-12-11T01:04:44.766Z,0.90
2018-12-11T01:07:14.344Z,1.03
2018-12-11T01:09:44.009Z,1.30
2018-12-11T01:12:13.583Z,1.50
2018-12-11T01:14:43.160Z,1.03
2018-12-11T01:17:13.976Z,1.20
2018-12-11T01:19:43.785Z,1.00
2018-12-11T01:22:13.395Z,1.23
2018-12-11T01:24:42.937Z,0.90
2018-12-11T01:27:12.488Z,1.37
2018-12-11T01:29:42.079Z,1.13
2018-12-11T01:32:11.703Z,1.43
2018-12-11T01:34:41.306Z,1.30
2018-12-11T01:37:10.884Z,0.83
2018-12-11T01:39:40.463Z,1.20
2018-12-11T01:42:10.051Z,1.30
2018-12-11T01:44:39.606Z,1.20
2018-12-11T01:47:09.218Z,1.20
2018-12-11T01:49:38.929Z,0.80
2018-12-11T01:52:08.485Z,1.00
2018-12-11T01:54:38.056Z,0.90
2018-12-11T01:57:07.614Z,1.10
2018-12-11T01:59:39.659Z,1.03
2018-12-11T02:02:09.216Z,1.00
2018-12-11T02:04:38.794Z,0.80
2018-12-11T02:07:08.342Z,0.87
2018-12-11T02:09:38.065Z,0.90
2018-12-11T02:12:07.609Z,1.13
2018-12-11T02:14:37.262Z,1.33
2018-12-11T02:17:06.844Z,1.20
2018-12-11T02:19:36.447Z,1.03
2018-12-11T02:22:06.055Z,1.40
2018-12-11T02:24:35.642Z,1.77
2018-12-11T02:27:05.198Z,1.80
2018-12-11T02:29:34.811Z,1.87
2018-12-11T02:32:04.372Z,1.90
2018-12-11T02:34:33.935Z,1.53
2018-12-11T02:37:03.521Z,1.70
2018-12-11T02:39:33.184Z,1.30
2018-12-11T02:42:02.774Z,1.33
2018-12-11T02:44:32.336Z,1.20
2018-12-11T02:47:01.892Z,1.30
2018-12-11T02:49:31.463Z,1.30
2018-12-11T02:52:01.006Z,1.17
2018-12-11T02:54:30.745Z,1.10
2018-12-11T02:57:00.399Z,1.40
2018-12-11T02:59:29.953Z,1.23
2018-12-11T03:01:59.534Z,1.70
2018-12-11T03:04:29.076Z,1.40
2018-12-11T03:06:58.683Z,1.47
2018-12-11T03:09:28.258Z,1.57
2018-12-11T03:11:58.009Z,1.47
2018-12-11T03:14:27.567Z,1.60
2018-12-11T03:16:58.368Z,1.40
2018-12-11T03:19:27.911Z,1.43
2018-12-11T03:21:57.477Z,1.30
2018-12-11T03:24:27.102Z,1.50
2018-12-11T03:26:56.678Z,1.40
2018-12-11T03:29:26.223Z,1.40
2018-12-11T03:31:57.079Z,1.40
2018-12-11T03:34:26.652Z,1.70
2018-12-11T03:36:56.255Z,1.60
2018-12-11T03:39:25.846Z,1.70
2018-12-11T03:41:55.401Z,1.97
2018-12-11T03:44:25.072Z,1.87
2018-12-11T03:46:54.723Z,1.47
2018-12-11T03:49:24.338Z,2.13
2018-12-11T03:51:53.907Z,1.90
2018-12-11T03:54:23.487Z,5.13
2018-12-11T03:56:53.102Z,2.07
2018-12-11T03:59:22.656Z,1.90
2018-12-11T04:01:52.226Z,1.90
2018-12-11T04:04:21.801Z,2.20
2018-12-11T04:06:51.365Z,2.10
2018-12-11T04:09:22.191Z,2.20
2018-12-11T04:11:51.755Z,2.37
2018-12-11T04:14:21.347Z,1.87
2018-12-11T04:16:50.912Z,1.90
2018-12-11T04:19:20.462Z,2.10
2018-12-11T04:21:50.162Z,1.90
2018-12-11T04:24:19.823Z,2.80
2018-12-11T04:26:49.369Z,3.17
2018-12-11T04:29:18.991Z,2.10
2018-12-11T04:31:48.586Z,2.80
2018-12-11T04:34:18.165Z,1.77
2018-12-11T04:36:50.232Z,1.90
2018-12-11T04:39:19.829Z,1.80
2018-12-11T04:41:49.380Z,1.90
2018-12-11T04:44:18.996Z,1.97
2018-12-11T04:46:48.558Z,1.90
2018-12-11T04:49:18.088Z,1.93
2018-12-11T04:51:47.719Z,3.43
2018-12-11T04:54:17.306Z,6.37
2018-12-11T04:56:46.870Z,5.23
2018-12-11T04:59:17.719Z,5.83
2018-12-11T05:01:48.561Z,4.10
2018-12-11T05:04:19.141Z,2.67
2018-12-11T05:06:48.694Z,3.50
2018-12-11T05:09:18.278Z,3.43
2018-12-11T05:11:47.842Z,2.80
2018-12-11T05:14:18.949Z,3.13
2018-12-11T05:16:48.522Z,2.50
2018-12-11T05:19:18.076Z,2.77
2018-12-11T05:21:47.665Z,3.43
2018-12-11T05:24:17.213Z,4.10
2018-12-11T05:26:46.801Z,4.80
2018-12-11T05:29:16.366Z,4.37
2018-12-11T05:31:45.930Z,4.50
2018-12-11T05:34:15.602Z,4.50
2018-12-11T05:36:45.165Z,4.30
2018-12-11T05:39:14.746Z,4.93
2018-12-11T05:41:44.307Z,4.80
2018-12-11T05:44:14.013Z,4.57
2018-12-11T05:46:43.595Z,4.13
2018-12-11T05:49:13.207Z,4.33
2018-12-11T05:51:42.758Z,5.57
2018-12-11T05:54:12.326Z,6.57
2018-12-11T05:56:41.909Z,5.80
2018-12-11T05:59:11.799Z,5.57
2018-12-11T06:01:42.406Z,5.50
2018-12-11T06:04:11.951Z,6.00
2018-12-11T06:06:42.485Z,5.13
2018-12-11T06:09:11.395Z,6.03
2018-12-11T06:11:40.951Z,5.90
2018-12-11T06:14:10.546Z,6.00
2018-12-11T06:16:40.167Z,5.73
2018-12-11T06:19:09.728Z,5.97
2018-12-11T06:21:39.302Z,7.07
2018-12-11T06:24:09.023Z,7.37
2018-12-11T06:26:38.589Z,6.50
2018-12-11T06:29:08.162Z,6.70
2018-12-11T06:31:37.784Z,6.13
2018-12-11T06:34:07.370Z,6.57
2018-12-11T06:36:36.957Z,5.67
2018-12-11T06:39:07.039Z,5.33
2018-12-11T06:41:36.607Z,5.40
2018-12-11T06:44:06.166Z,5.67
2018-12-11T06:46:39.439Z,5.63
2018-12-11T06:49:10.269Z,6.90
2018-12-11T06:51:39.880Z,4.87
2018-12-11T06:54:11.953Z,5.27
2018-12-11T06:56:41.520Z,5.97
2018-12-11T06:59:11.136Z,5.63
2018-12-11T07:01:40.752Z,5.47
2018-12-11T07:04:10.325Z,5.90
2018-12-11T07:06:40.017Z,6.30
2018-12-11T07:09:09.610Z,7.83
2018-12-11T07:11:39.211Z,8.80
2018-12-11T07:14:10.015Z,8.60
2018-12-11T07:16:39.616Z,6.97
2018-12-11T07:19:10.582Z,5.97
2018-12-11T07:21:40.164Z,7.20
2018-12-11T07:24:09.779Z,7.30
2018-12-11T07:26:39.356Z,7.70
2018-12-11T07:29:08.950Z,8.93
2018-12-11T07:31:38.533Z,6.27
2018-12-11T07:34:08.102Z,6.20
2018-12-11T07:36:38.959Z,5.60
2018-12-11T07:39:08.548Z,7.17
2018-12-11T07:41:40.622Z,7.27
2018-12-11T07:44:10.232Z,7.27
2018-12-11T07:46:41.062Z,7.50
2018-12-11T07:49:10.625Z,7.93
2018-12-11T07:51:40.230Z,7.60
2018-12-11T07:54:11.230Z,9.07
2018-12-11T07:56:40.803Z,8.50
2018-12-11T07:59:10.439Z,9.73
2018-12-11T08:01:40.025Z,10.23
2018-12-11T08:04:09.589Z,9.30
2018-12-11T08:06:39.191Z,8.57
2018-12-11T08:09:08.766Z,6.20
2018-12-11T08:11:38.356Z,5.87
2018-12-11T08:14:07.970Z,5.53
2018-12-11T08:16:37.538Z,5.50
2018-12-11T08:19:07.138Z,4.83
2018-12-11T08:21:36.716Z,5.00
2018-12-11T08:24:06.300Z,5.07
2018-12-11T08:26:35.914Z,5.20
2018-12-11T08:29:05.490Z,6.50
2018-12-11T08:31:35.072Z,11.00
2018-12-11T08:34:04.680Z,10.13
2018-12-11T08:36:35.527Z,9.13
2018-12-11T08:39:06.680Z,10.23
2018-12-11T08:41:36.345Z,8.53
2018-12-11T08:44:05.874Z,8.00
2018-12-11T08:46:35.501Z,6.13
2018-12-11T08:49:06.307Z,7.80
2018-12-11T08:51:36.187Z,8.53
2018-12-11T08:54:07.093Z,6.83
2018-12-11T08:56:36.662Z,5.53
2018-12-11T08:59:06.827Z,4.97
2018-12-11T09:01:35.878Z,15.30
2018-12-11T09:04:05.477Z,10.73
2018-12-11T09:06:35.123Z,6.93
2018-12-11T09:09:06.601Z,7.43
2018-12-11T09:11:36.187Z,10.63
2018-12-11T09:14:05.813Z,10.80
2018-12-11T09:16:35.391Z,8.03
2018-12-11T09:19:05.025Z,6.67
2018-12-11T09:21:35.939Z,6.83
2018-12-11T09:24:05.532Z,7.77
2018-12-11T09:26:35.147Z,9.63
2018-12-11T09:29:04.747Z,8.97
2018-12-11T09:31:34.389Z,12.97
2018-12-11T09:34:03.968Z,17.10
2018-12-11T09:36:33.605Z,16.77
2018-12-11T09:39:05.026Z,17.90
2018-12-11T09:41:35.894Z,18.70
2018-12-11T09:44:05.478Z,18.87
2018-12-11T09:46:35.087Z,18.03
2018-12-11T09:49:04.723Z,15.10
2018-12-11T09:51:34.317Z,13.77
2018-12-11T09:54:03.955Z,12.80
2018-12-11T09:56:33.547Z,12.10
2018-12-11T09:59:03.118Z,12.77
2018-12-11T10:01:32.731Z,12.53
2018-12-11T10:04:02.329Z,12.07
2018-12-11T10:06:31.940Z,14.43
2018-12-11T10:09:02.662Z,15.43
2018-12-11T10:11:32.314Z,13.43
2018-12-11T10:14:01.929Z,13.53
2018-12-11T10:16:31.514Z,13.63
2018-12-11T10:19:02.361Z,13.13
2018-12-11T10:21:31.969Z,14.30
2018-12-11T10:24:01.603Z,13.23
2018-12-11T10:26:31.250Z,13.77
2018-12-11T10:29:00.841Z,13.03
2018-12-11T10:31:31.583Z,12.27
2018-12-11T10:34:01.206Z,11.13
2018-12-11T10:36:30.857Z,11.10
2018-12-11T10:39:00.481Z,11.93
2018-12-11T10:41:30.072Z,12.47
2018-12-11T10:43:59.671Z,13.60
2018-12-11T10:46:33.713Z,12.93
2018-12-11T10:48:58.884Z,13.10
2018-12-11T10:51:28.468Z,13.20
2018-12-11T10:53:58.095Z,12.30
2018-12-11T10:56:27.677Z,12.10
2018-12-11T10:58:57.274Z,12.03
2018-12-11T11:01:28.834Z,12.03
2018-12-11T11:03:58.452Z,16.03
2018-12-11T11:06:28.089Z,16.33
2018-12-11T11:08:57.698Z,14.77
2018-12-11T11:11:27.288Z,16.50
2018-12-11T11:13:56.922Z,19.53
2018-12-11T11:16:26.537Z,15.70
2018-12-11T11:18:56.135Z,13.63
2018-12-11T11:21:26.944Z,12.37
2018-12-11T11:23:56.524Z,11.00
2018-12-11T11:26:26.145Z,10.23
2018-12-11T11:28:55.792Z,9.60
2018-12-11T11:31:25.340Z,11.50
2018-12-11T11:33:57.094Z,12.17
2018-12-11T11:36:26.195Z,13.03
2018-12-11T11:38:55.762Z,12.90
2018-12-11T11:41:25.355Z,9.83
2018-12-11T11:43:54.966Z,10.47
2018-12-11T11:46:24.572Z,11.47
2018-12-11T11:48:54.162Z,15.90
2018-12-11T11:51:23.778Z,10.10
2018-12-11T11:53:54.547Z,9.40
2018-12-11T11:56:24.155Z,9.80
2018-12-11T11:58:53.790Z,8.27
2018-12-11T12:01:23.383Z,5.20
2018-12-11T12:03:54.158Z,2.27
2018-12-11T12:06:23.834Z,2.43
2018-12-11T12:08:59.208Z,1.60
2018-12-11T12:11:23.065Z,1.77
2018-12-11T12:13:53.919Z,1.97
2018-12-11T12:16:23.494Z,1.43
2018-12-11T12:18:54.259Z,2.70
2018-12-11T12:21:23.902Z,1.60
2018-12-11T12:23:53.479Z,1.67
2018-12-11T12:26:23.026Z,1.57
2018-12-11T12:28:52.635Z,2.20
2018-12-11T12:31:23.056Z,1.63
2018-12-11T12:33:52.675Z,2.30
2018-12-11T12:36:22.239Z,4.03
2018-12-11T12:38:51.802Z,3.23
2018-12-11T12:41:22.666Z,2.30
2018-12-11T12:43:52.233Z,3.70
2018-12-11T12:46:21.862Z,2.97
2018-12-11T12:48:51.525Z,2.73
2018-12-11T12:51:21.113Z,2.37
2018-12-11T12:53:51.177Z,3.70
2018-12-11T12:56:20.811Z,8.30
2018-12-11T12:58:50.380Z,2.83
2018-12-11T13:01:19.966Z,2.57
2018-12-11T13:03:52.001Z,3.60
2018-12-11T13:06:21.568Z,3.77
2018-12-11T13:08:52.443Z,6.33
2018-12-11T13:11:23.282Z,6.80
2018-12-11T13:13:52.861Z,7.23
2018-12-11T13:16:23.695Z,8.23
2018-12-11T13:18:53.270Z,6.33
2018-12-11T13:21:22.858Z,7.13
2018-12-11T13:23:53.775Z,6.63
2018-12-11T13:26:23.352Z,6.67
2018-12-11T13:28:52.918Z,7.30
2018-12-11T13:31:22.511Z,9.27
2018-12-11T13:33:52.127Z,8.83
2018-12-11T13:36:21.913Z,8.13
2018-12-11T13:38:51.501Z,8.70
2018-12-11T13:41:21.074Z,8.33
2018-12-11T13:43:51.857Z,7.80
2018-12-11T13:46:21.477Z,8.40
2018-12-11T13:48:51.086Z,8.70
2018-12-11T13:51:20.655Z,7.80
2018-12-11T13:53:50.231Z,8.37
2018-12-11T13:56:19.854Z,8.33
2018-12-11T13:58:49.471Z,8.70
2018-12-11T14:01:19.061Z,9.67
2018-12-11T14:03:49.870Z,8.43
2018-12-11T14:06:19.459Z,8.97
2018-12-11T14:08:49.085Z,8.10
2018-12-11T14:11:18.639Z,8.93
2018-12-11T14:13:49.581Z,9.13
2018-12-11T14:16:19.176Z,8.80
2018-12-11T14:18:48.826Z,9.30
2018-12-11T14:21:20.907Z,9.20
2018-12-11T14:23:50.547Z,9.63
2018-12-11T14:26:20.165Z,8.83
2018-12-11T14:28:49.756Z,8.43
2018-12-11T14:31:19.717Z,7.97
2018-12-11T14:33:49.274Z,9.60
2018-12-11T14:36:18.927Z,10.87
2018-12-11T14:38:49.773Z,8.43
2018-12-11T14:41:19.338Z,8.67
2018-12-11T14:43:50.210Z,6.60
2018-12-11T14:46:19.750Z,6.10
2018-12-11T14:48:49.350Z,6.93
2018-12-11T14:51:19.016Z,7.00
2018-12-11T14:53:49.865Z,6.87
2018-12-11T14:56:19.436Z,6.93
2018-12-11T14:58:49.034Z,6.50
2018-12-11T15:01:18.625Z,13.40
2018-12-11T15:03:48.279Z,7.03
2018-12-11T15:06:17.918Z,6.93
2018-12-11T15:08:47.492Z,7.97
2018-12-11T15:11:17.109Z,8.20
2018-12-11T15:13:46.683Z,8.93
2018-12-11T15:16:16.241Z,12.07
2018-12-11T15:18:47.073Z,8.53
2018-12-11T15:21:16.721Z,8.33
2018-12-11T15:23:48.428Z,9.57
2018-12-11T15:26:18.242Z,9.40
2018-12-11T15:28:49.298Z,10.13
2018-12-11T15:31:20.199Z,11.80
2018-12-11T15:33:49.928Z,10.73
2018-12-11T15:36:21.711Z,10.13
2018-12-11T15:38:52.928Z,10.27
2018-12-11T15:41:23.867Z,9.37
2018-12-11T15:43:53.532Z,10.90
2018-12-11T15:46:24.519Z,12.83
2018-12-11T15:48:54.149Z,21.17
2018-12-11T15:51:25.127Z,15.60
2018-12-11T15:53:55.800Z,15.03
2018-12-11T15:56:25.463Z,15.13
2018-12-11T15:58:57.591Z,11.10
2018-12-11T16:01:27.457Z,7.97
2018-12-11T16:03:58.247Z,7.47
2018-12-11T16:06:27.876Z,6.97
2018-12-11T16:08:57.470Z,7.60
2018-12-11T16:11:27.058Z,7.03
2018-12-11T16:13:56.663Z,7.17
2018-12-11T16:16:26.325Z,6.53
2018-12-11T16:18:55.912Z,6.90
2018-12-11T16:21:26.802Z,7.30
2018-12-11T16:23:57.247Z,7.30
2018-12-11T16:26:26.888Z,8.73
2018-12-11T16:28:56.755Z,7.30
2018-12-11T16:31:26.407Z,7.70
2018-12-11T16:33:56.256Z,8.50
2018-12-11T16:36:27.217Z,9.67
2018-12-11T16:38:56.797Z,9.23
2018-12-11T16:41:26.402Z,9.37
2018-12-11T16:43:58.331Z,10.20
2018-12-11T16:46:27.921Z,9.57
2018-12-11T16:48:57.528Z,10.20
2018-12-11T16:51:27.159Z,11.23
2018-12-11T16:53:56.774Z,11.53
2018-12-11T16:56:27.059Z,12.50
2018-12-11T16:58:56.012Z,14.10
2018-12-11T17:01:25.615Z,14.43
2018-12-11T17:03:57.705Z,15.20
2018-12-11T17:06:27.293Z,14.43
2018-12-11T17:08:58.145Z,12.30
2018-12-11T17:11:27.707Z,11.00
2018-12-11T17:13:57.319Z,11.27
2018-12-11T17:16:29.223Z,14.87
2018-12-11T17:18:58.812Z,12.73
2018-12-11T17:21:29.662Z,11.23
2018-12-11T17:23:59.258Z,7.83
2018-12-11T17:26:29.632Z,5.97
2018-12-11T17:28:59.206Z,4.07
2018-12-11T17:31:28.772Z,3.57
2018-12-11T17:33:58.329Z,3.57
2018-12-11T17:36:30.386Z,3.07
2018-12-11T17:38:59.955Z,3.03
2018-12-11T17:41:29.531Z,3.43
2018-12-11T17:43:59.217Z,3.10
2018-12-11T17:46:28.980Z,3.20
2018-12-11T17:48:58.607Z,3.17
2018-12-11T17:51:28.207Z,7.73
2018-12-11T17:53:57.813Z,4.00
2018-12-11T17:56:28.623Z,3.83
2018-12-11T17:58:58.198Z,3.70
2018-12-11T18:01:29.030Z,5.63
2018-12-11T18:03:59.716Z,5.40
2018-12-11T18:06:29.308Z,5.03
2018-12-11T18:09:00.129Z,7.10
2018-12-11T18:11:29.693Z,8.13
2018-12-11T18:13:59.272Z,5.70
2018-12-11T18:16:28.886Z,10.67
2018-12-11T18:18:58.468Z,9.83
2018-12-11T18:21:28.122Z,3.20
2018-12-11T18:23:57.731Z,2.83
2018-12-11T18:26:28.570Z,2.50
2018-12-11T18:28:58.153Z,2.37
2018-12-11T18:31:30.230Z,2.00
2018-12-11T18:34:01.074Z,2.30
2018-12-11T18:36:30.658Z,1.90
2018-12-11T18:39:00.230Z,1.73
2018-12-11T18:41:29.794Z,1.93
2018-12-11T18:43:59.348Z,1.90
2018-12-11T18:46:30.232Z,1.60
2018-12-11T18:48:59.825Z,1.47
2018-12-11T18:51:29.432Z,1.30
2018-12-11T18:53:59.060Z,1.80
2018-12-11T18:56:28.918Z,1.60
2018-12-11T18:59:00.880Z,1.50
2018-12-11T19:01:30.503Z,1.57
2018-12-11T19:04:00.151Z,1.83
2018-12-11T19:06:29.761Z,2.60
2018-12-11T19:09:05.578Z,2.63
2018-12-11T19:11:28.944Z,3.17
2018-12-11T19:13:58.506Z,2.70
2018-12-11T19:16:28.129Z,2.60
2018-12-11T19:18:57.694Z,2.77
2018-12-11T19:21:27.375Z,2.67
2018-12-11T19:24:04.409Z,2.53
2018-12-11T19:26:34.018Z,2.80
2018-12-11T19:29:03.647Z,21.83
2018-12-11T19:31:33.306Z,25.03
2018-12-11T19:34:02.932Z,27.90
2018-12-11T19:36:32.559Z,26.67
2018-12-11T19:39:02.199Z,27.20
2018-12-11T19:41:31.791Z,30.70
2018-12-11T19:44:01.398Z,39.87
2018-12-11T19:46:31.002Z,36.00
2018-12-11T19:49:00.614Z,35.63
2018-12-11T19:51:30.220Z,36.03
2018-12-11T19:54:01.181Z,36.17
2018-12-11T19:56:30.749Z,38.37
2018-12-11T19:59:00.385Z,45.30
2018-12-11T20:01:30.015Z,50.77
2018-12-11T20:03:59.586Z,61.60
2018-12-11T20:06:31.576Z,65.13
2018-12-11T20:09:01.269Z,60.57
2018-12-11T20:11:30.895Z,63.80
2018-12-11T20:14:00.585Z,68.00
2018-12-11T20:16:30.230Z,67.63
2018-12-11T20:18:59.863Z,61.40
2018-12-11T20:21:29.518Z,42.47
2018-12-11T20:24:04.805Z,44.67
2018-12-11T20:26:28.849Z,27.67
2018-12-11T20:28:58.640Z,17.00
2018-12-11T20:31:29.376Z,22.77
2018-12-11T20:33:58.995Z,19.23
2018-12-11T20:36:28.929Z,20.67
2018-12-11T20:38:58.805Z,30.87
2018-12-11T20:41:28.681Z,39.20
2018-12-11T20:43:59.894Z,40.67
2018-12-11T20:46:29.506Z,38.50
2018-12-11T20:48:59.378Z,36.93
2018-12-11T20:51:30.339Z,36.93
2018-12-11T20:54:00.037Z,36.53
2018-12-11T20:56:30.129Z,27.83
2018-12-11T20:58:59.900Z,32.00
2018-12-11T21:01:30.007Z,24.83
2018-12-11T21:04:00.084Z,19.77
2018-12-11T21:06:29.913Z,15.23
2018-12-11T21:08:59.667Z,11.27
2018-12-11T21:11:29.679Z,8.83
2018-12-11T21:13:59.761Z,6.90
2018-12-11T21:16:29.444Z,5.70
2018-12-11T21:19:00.633Z,5.50
2018-12-11T21:21:30.750Z,5.30
2018-12-11T21:24:00.349Z,4.53
2018-12-11T21:26:29.930Z,3.57
2018-12-11T21:28:59.545Z,3.77
2018-12-11T21:31:29.184Z,3.53
2018-12-11T21:33:58.802Z,4.07
2018-12-11T21:36:28.394Z,2.80
2018-12-11T21:38:57.988Z,2.87
2018-12-11T21:41:27.601Z,3.20
2018-12-11T21:43:57.151Z,3.17
2018-12-11T21:46:26.743Z,7.20
2018-12-11T21:48:57.657Z,7.20
2018-12-11T21:51:27.282Z,8.97
2018-12-11T21:53:56.940Z,8.90
2018-12-11T21:56:26.547Z,8.07
2018-12-11T21:58:56.107Z,6.63
2018-12-11T22:01:26.922Z,5.97
2018-12-11T22:03:56.510Z,5.80
2018-12-11T22:06:28.696Z,4.80
2018-12-11T22:08:58.284Z,4.07
2018-12-11T22:11:29.364Z,3.67
2018-12-11T22:13:58.919Z,3.30
2018-12-11T22:16:28.500Z,3.13
2018-12-11T22:18:58.138Z,3.13
2018-12-11T22:21:28.924Z,3.03
2018-12-11T22:23:58.583Z,4.73
2018-12-11T22:26:28.209Z,6.20
2018-12-11T22:28:57.799Z,5.60
2018-12-11T22:31:27.385Z,6.27
2018-12-11T22:33:58.208Z,6.07
2018-12-11T22:36:27.769Z,5.70
2018-12-11T22:38:57.379Z,5.90
2018-12-11T22:41:26.963Z,5.83
2018-12-11T22:43:56.554Z,10.67
2018-12-11T22:46:26.149Z,8.73
2018-12-11T22:48:55.757Z,8.17
2018-12-11T22:51:25.414Z,8.73
2018-12-11T22:53:55.023Z,10.67
2018-12-11T22:56:24.630Z,11.83
2018-12-11T22:58:54.293Z,11.63
2018-12-11T23:01:23.872Z,11.70
2018-12-11T23:03:53.454Z,11.70
2018-12-11T23:06:24.399Z,12.77
2018-12-11T23:08:53.989Z,11.67
2018-12-11T23:11:23.555Z,12.10
2018-12-11T23:13:53.193Z,11.47
2018-12-11T23:16:22.782Z,10.30
2018-12-11T23:18:52.341Z,10.87
2018-12-11T23:21:22.020Z,11.13
2018-12-11T23:23:51.602Z,10.43
2018-12-11T23:26:22.334Z,10.10
2018-12-11T23:28:51.977Z,10.83
2018-12-11T23:31:21.607Z,11.00
2018-12-11T23:33:51.177Z,11.20
2018-12-11T23:36:20.768Z,11.00
2018-12-11T23:38:50.382Z,10.60
2018-12-11T23:41:20.005Z,10.63
2018-12-11T23:43:50.841Z,9.87
2018-12-11T23:46:20.426Z,10.33
2018-12-11T23:48:50.070Z,10.10
2018-12-11T23:51:19.643Z,10.70
2018-12-11T23:53:49.226Z,10.60
2018-12-11T23:56:18.859Z,10.10
2018-12-11T23:58:48.423Z,10.73
